Time;durP1;ratioP1;P1;durP2;ratioP2;P2;SDS_P1;SDS_P2;PMS_P1;PMS_P2;Temp;Humidity;BMP_temperature;BMP_pressure;BME280_temperature;BME280_humidity;BME280_pressure;Samples;Min_cycle;Max_cycle;Signal;HPM_P1;HPM_P2
2023/03/20 00:01:32;;;;;;;5.55;5.05;;;11.20;99.90;;;;;;5010996;28;20195;-64
2023/03/20 00:03:58;;;;;;;5.85;4.88;;;10.60;99.90;;;;;;5008377;28;20312;-64
2023/03/20 00:06:25;;;;;;;5.33;4.83;;;11.20;99.90;;;;;;5009029;28;20207;-65
2023/03/20 00:08:53;;;;;;;5.07;4.35;;;10.90;99.90;;;;;;5011270;28;20224;-65
2023/03/20 00:11:48;;;;;;;5.80;4.95;;;10.80;99.90;;;;;;5008043;28;20205;-65
2023/03/20 00:14:17;;;;;;;5.65;5.15;;;10.90;99.90;;;;;;5007611;28;20185;-65
2023/03/20 00:16:45;;;;;;;5.57;5.18;;;10.90;99.90;;;;;;5011083;28;20187;-65
2023/03/20 00:19:18;;;;;;;6.18;5.20;;;11.00;99.90;;;;;;5009398;28;20183;-64
2023/03/20 00:21:46;;;;;;;5.30;4.80;;;10.80;99.90;;;;;;5010736;28;20213;-65
2023/03/20 00:24:13;;;;;;;5.90;5.30;;;10.80;99.90;;;;;;5011163;28;20238;-65
2023/03/20 00:26:38;;;;;;;6.35;5.85;;;10.80;99.90;;;;;;5008138;28;20186;-64
2023/03/20 00:29:06;;;;;;;6.00;5.50;;;10.70;99.90;;;;;;5010630;28;20183;-65
2023/03/20 00:31:37;;;;;;;6.05;5.55;;;10.80;99.90;;;;;;5004978;28;20976;-64
2023/03/20 00:34:09;;;;;;;5.63;5.18;;;10.70;99.90;;;;;;5009897;28;20197;-64
2023/03/20 00:36:34;;;;;;;5.60;5.20;;;10.70;99.90;;;;;;5010495;28;20183;-64
2023/03/20 00:39:00;;;;;;;6.40;5.80;;;10.80;99.90;;;;;;5009860;28;20722;-65
2023/03/20 00:41:28;;;;;;;6.85;6.18;;;10.80;99.90;;;;;;5008022;28;20567;-64
2023/03/20 00:43:58;;;;;;;6.35;5.70;;;10.60;99.90;;;;;;5010606;28;20191;-65
2023/03/20 00:46:25;;;;;;;6.40;5.80;;;10.50;99.90;;;;;;5010021;28;20293;-64
2023/03/20 00:48:51;;;;;;;5.47;4.97;;;10.60;99.90;;;;;;5005503;28;20194;-64
2023/03/20 00:51:17;;;;;;;5.32;4.90;;;10.40;99.90;;;;;;5010132;28;20679;-65
2023/03/20 00:53:43;;;;;;;5.22;4.72;;;10.40;99.90;;;;;;5010125;28;20617;-65
2023/03/20 00:56:30;;;;;;;5.70;5.20;;;10.70;99.90;;;;;;5008904;28;20191;-65
2023/03/20 00:58:56;;;;;;;5.05;4.65;;;10.50;99.90;;;;;;5010189;28;20185;-65
2023/03/20 01:01:22;;;;;;;4.43;4.03;;;10.70;99.90;;;;;;5011484;28;20260;-65
2023/03/20 01:03:48;;;;;;;4.53;4.20;;;10.70;99.90;;;;;;5008616;28;20214;-64
2023/03/20 01:06:14;;;;;;;3.03;2.70;;;10.30;99.90;;;;;;5010333;28;20179;-65
2023/03/20 01:08:40;;;;;;;3.60;3.30;;;10.60;99.90;;;;;;5009908;28;20529;-65
2023/03/20 01:11:09;;;;;;;4.30;4.00;;;10.70;99.90;;;;;;5009062;28;20204;-64
2023/03/20 01:13:39;;;;;;;5.05;4.65;;;10.70;99.90;;;;;;5008709;28;20560;-65
2023/03/20 01:16:05;;;;;;;5.40;4.80;;;10.60;99.90;;;;;;5009993;28;20556;-64
2023/03/20 01:18:31;;;;;;;4.93;4.43;;;10.40;99.90;;;;;;5009358;28;20271;-66
2023/03/20 01:20:56;;;;;;;5.23;4.70;;;10.80;99.90;;;;;;5008291;28;20719;-64
2023/03/20 01:23:23;;;;;;;4.90;4.50;;;10.40;99.90;;;;;;5007709;28;20613;-64
2023/03/20 01:25:50;;;;;;;4.78;4.28;;;9.90;99.90;;;;;;5006179;28;20496;-65
2023/03/20 01:28:21;;;;;;;4.88;4.47;;;10.50;99.90;;;;;;5008753;28;20596;-65
2023/03/20 01:30:47;;;;;;;5.13;4.35;;;10.40;99.90;;;;;;5023331;28;20205;-64
2023/03/20 01:33:18;;;;;;;4.90;4.43;;;10.30;99.90;;;;;;5006630;28;20219;-65
2023/03/20 01:35:45;;;;;;;4.78;4.38;;;10.40;99.90;;;;;;5023295;28;20741;-64
2023/03/20 01:38:23;;;;;;;4.10;3.80;;;10.40;99.90;;;;;;5009655;28;20198;-64
2023/03/20 01:41:04;;;;;;;5.00;4.50;;;10.10;99.90;;;;;;5006540;28;20216;-65
2023/03/20 01:43:34;;;;;;;4.88;4.47;;;10.10;99.90;;;;;;5008407;28;20213;-64
2023/03/20 01:46:22;;;;;;;5.45;4.95;;;10.20;99.90;;;;;;5008814;28;20542;-65
2023/03/20 01:48:56;;;;;;;4.70;4.30;;;10.50;99.90;;;;;;5006887;28;20205;-64
2023/03/20 01:51:31;;;;;;;4.20;3.80;;;10.40;99.90;;;;;;5008555;28;20878;-64
2023/03/20 01:54:10;;;;;;;4.97;3.33;;;10.30;99.90;;;;;;5008069;28;20190;-64
2023/03/20 01:56:50;;;;;;;4.93;4.35;;;10.50;99.90;;;;;;5006914;28;20236;-64
2023/03/20 01:59:30;;;;;;;5.45;3.95;;;10.60;99.90;;;;;;5005895;28;20602;-64
2023/03/20 02:01:57;;;;;;;3.83;3.53;;;10.40;99.90;;;;;;5007317;28;20320;-65
2023/03/20 02:04:28;;;;;;;3.42;3.17;;;10.40;99.90;;;;;;5008594;28;20671;-65
2023/03/20 02:06:55;;;;;;;3.72;3.40;;;10.60;99.90;;;;;;5008327;28;20197;-65
2023/03/20 02:09:20;;;;;;;3.00;2.80;;;10.60;99.90;;;;;;5010328;28;20269;-65
2023/03/20 02:11:47;;;;;;;5.53;3.83;;;10.40;99.90;;;;;;5007312;28;20305;-65
2023/03/20 02:14:13;;;;;;;4.00;3.70;;;10.60;99.90;;;;;;5007670;28;20659;-65
2023/03/20 02:16:39;;;;;;;4.20;3.20;;;10.20;99.90;;;;;;5008417;28;20232;-65
2023/03/20 02:19:11;;;;;;;3.30;3.10;;;10.40;99.90;;;;;;5007078;28;20207;-65
2023/03/20 02:21:42;;;;;;;3.80;3.47;;;10.10;99.90;;;;;;5021121;28;20517;-65
2023/03/20 02:24:43;;;;;;;3.20;3.00;;;10.50;99.90;;;;;;5007974;28;20240;-65
2023/03/20 02:27:24;;;;;;;3.75;2.70;;;10.60;99.90;;;;;;5007643;28;20675;-65
2023/03/20 02:29:58;;;;;;;2.00;1.90;;;10.70;99.90;;;;;;5007905;28;20226;-65
2023/03/20 02:33:03;;;;;;;3.50;2.90;;;10.60;99.90;;;;;;5007319;28;20220;-64
2023/03/20 02:35:59;;;;;;;1.77;1.67;;;10.50;99.90;;;;;;5009088;28;20206;-65
2023/03/20 02:38:57;;;;;;;2.33;1.70;;;10.60;99.90;;;;;;5013188;28;20211;-65
2023/03/20 02:41:23;;;;;;;2.00;1.90;;;10.70;99.90;;;;;;5010178;28;20710;-65
2023/03/20 02:44:17;;;;;;;1.77;1.67;;;10.60;99.90;;;;;;5013090;28;20222;-65
2023/03/20 02:47:06;;;;;;;1.45;1.35;;;10.60;99.90;;;;;;5011324;28;20191;-64
2023/03/20 02:49:54;;;;;;;1.30;1.20;;;10.50;99.90;;;;;;5012426;28;20242;-64
2023/03/20 02:52:38;;;;;;;1.10;1.00;;;10.30;99.90;;;;;;5010324;28;20194;-64
2023/03/20 02:55:27;;;;;;;0.93;0.93;;;10.50;99.90;;;;;;5012043;28;20199;-64
2023/03/20 02:58:08;;;;;;;1.13;1.00;;;10.50;99.90;;;;;;5012664;28;20185;-65
2023/03/20 03:00:39;;;;;;;0.90;0.90;;;10.60;99.90;;;;;;5012604;28;20337;-64
2023/03/20 03:03:10;;;;;;;1.02;0.95;;;10.50;99.90;;;;;;5012416;28;20205;-64
2023/03/20 03:05:41;;;;;;;0.80;0.80;;;10.70;99.90;;;;;;5011041;28;20192;-64
2023/03/20 03:08:12;;;;;;;1.98;1.55;;;10.80;99.90;;;;;;5011537;28;20186;-64
2023/03/20 03:10:43;;;;;;;2.38;1.92;;;10.70;99.90;;;;;;5011800;28;20209;-64
2023/03/20 03:13:14;;;;;;;1.80;1.70;;;10.80;99.90;;;;;;5009858;28;20887;-64
2023/03/20 03:15:44;;;;;;;2.00;1.90;;;10.80;99.90;;;;;;5011159;28;20199;-65
2023/03/20 03:18:21;;;;;;;1.70;1.60;;;10.70;99.90;;;;;;5010783;28;20245;-64
2023/03/20 03:20:53;;;;;;;1.75;1.65;;;10.50;99.90;;;;;;5008501;28;20217;-64
2023/03/20 03:23:31;;;;;;;1.60;1.50;;;10.60;99.90;;;;;;5012182;28;20232;-64
2023/03/20 03:25:59;;;;;;;1.75;1.65;;;10.60;99.90;;;;;;5008712;28;20175;-65
2023/03/20 03:28:37;;;;;;;2.17;2.08;;;10.60;99.90;;;;;;5012925;28;20186;-64
2023/03/20 03:31:10;;;;;;;1.60;1.50;;;10.70;99.90;;;;;;5011511;28;20213;-64
2023/03/20 03:33:39;;;;;;;1.77;1.67;;;10.60;99.90;;;;;;5005689;28;20192;-64
2023/03/20 03:36:37;;;;;;;1.67;1.58;;;10.60;99.90;;;;;;5011235;28;20269;-65
2023/03/20 03:39:09;;;;;;;2.33;1.80;;;10.40;99.90;;;;;;5008663;28;20635;-64
2023/03/20 03:41:44;;;;;;;1.65;1.55;;;10.60;99.90;;;;;;5010183;28;20206;-65
2023/03/20 03:44:29;;;;;;;1.70;1.25;;;10.70;99.90;;;;;;5011330;28;20559;-65
2023/03/20 03:47:17;;;;;;;1.60;1.50;;;10.50;99.90;;;;;;5011655;28;20614;-64
2023/03/20 03:49:49;;;;;;;1.48;1.38;;;10.50;99.90;;;;;;5008498;28;20218;-64
2023/03/20 03:52:21;;;;;;;1.70;1.60;;;10.40;99.90;;;;;;5010911;28;20684;-64
2023/03/20 03:55:14;;;;;;;1.88;1.77;;;10.10;99.90;;;;;;5010169;28;20203;-65
2023/03/20 03:57:47;;;;;;;1.65;1.55;;;10.30;99.90;;;;;;5011379;28;20187;-64
2023/03/20 04:00:18;;;;;;;1.30;1.20;;;10.00;99.90;;;;;;5009993;28;20234;-65
2023/03/20 04:02:48;;;;;;;1.50;1.40;;;10.40;99.90;;;;;;5011481;28;20213;-65
2023/03/20 04:05:16;;;;;;;1.63;1.15;;;10.20;99.90;;;;;;5008160;28;20181;-65
2023/03/20 04:07:46;;;;;;;1.60;1.30;;;10.20;99.90;;;;;;5010910;28;20550;-64
2023/03/20 04:10:13;;;;;;;1.27;1.17;;;10.60;99.90;;;;;;5007528;28;20195;-64
2023/03/20 04:12:42;;;;;;;1.30;1.20;;;10.30;99.90;;;;;;5011026;28;20183;-64
2023/03/20 04:15:08;;;;;;;2.30;1.45;;;10.30;99.90;;;;;;5023509;28;20196;-64
2023/03/20 04:17:34;;;;;;;1.52;1.42;;;10.40;99.90;;;;;;5010703;28;20300;-64
2023/03/20 04:20:00;;;;;;;1.60;1.23;;;10.40;99.90;;;;;;5010927;28;20411;-64
2023/03/20 04:22:26;;;;;;;2.08;1.70;;;10.40;99.90;;;;;;5010338;28;20475;-64
2023/03/20 04:24:52;;;;;;;1.30;1.20;;;10.20;99.90;;;;;;5006401;28;20185;-64
2023/03/20 04:27:18;;;;;;;1.55;1.30;;;10.00;99.90;;;;;;5011044;28;20233;-65
2023/03/20 04:29:44;;;;;;;1.23;1.00;;;10.30;99.90;;;;;;5010426;28;20229;-65
2023/03/20 04:32:10;;;;;;;1.93;1.53;;;10.40;99.90;;;;;;5010033;28;20731;-65
2023/03/20 04:34:36;;;;;;;1.33;1.23;;;10.60;99.90;;;;;;5008993;28;20447;-65
2023/03/20 04:37:02;;;;;;;1.30;1.20;;;10.40;99.90;;;;;;5010377;28;20900;-65
2023/03/20 04:39:27;;;;;;;1.30;1.20;;;10.30;99.90;;;;;;5007294;28;20529;-65
2023/03/20 04:41:53;;;;;;;1.77;1.40;;;10.00;99.90;;;;;;5005215;28;20244;-65
2023/03/20 04:44:19;;;;;;;1.57;1.47;;;10.00;99.90;;;;;;5010308;28;20191;-65
2023/03/20 04:46:45;;;;;;;1.70;1.60;;;10.00;99.90;;;;;;5010298;28;20644;-65
2023/03/20 04:49:10;;;;;;;1.63;1.52;;;10.00;99.90;;;;;;5009951;28;20664;-65
2023/03/20 04:51:36;;;;;;;1.43;1.30;;;10.00;99.90;;;;;;5009551;28;20255;-65
2023/03/20 04:54:02;;;;;;;1.97;1.80;;;9.80;99.90;;;;;;5010013;28;20189;-65
2023/03/20 04:56:27;;;;;;;1.50;1.40;;;10.10;99.90;;;;;;5011832;28;20560;-65
2023/03/20 04:58:53;;;;;;;2.30;1.70;;;10.40;99.90;;;;;;5010312;28;20194;-65
2023/03/20 05:01:19;;;;;;;1.57;1.40;;;10.20;99.90;;;;;;5009977;28;20203;-65
2023/03/20 05:03:45;;;;;;;1.50;1.40;;;9.90;99.90;;;;;;5005232;28;20279;-65
2023/03/20 05:06:11;;;;;;;3.58;2.30;;;10.00;99.90;;;;;;5008884;28;20219;-65
2023/03/20 05:08:36;;;;;;;2.50;1.87;;;10.30;99.90;;;;;;5002411;28;20615;-65
2023/03/20 05:11:02;;;;;;;2.03;1.80;;;10.30;99.90;;;;;;5008864;28;20237;-65
2023/03/20 05:13:27;;;;;;;4.43;1.90;;;10.20;99.90;;;;;;5009616;28;20236;-65
2023/03/20 05:15:53;;;;;;;1.60;1.50;;;10.10;99.90;;;;;;5007040;28;20198;-65
2023/03/20 05:18:19;;;;;;;2.93;1.40;;;10.00;99.90;;;;;;5009345;28;20186;-65
2023/03/20 05:20:45;;;;;;;1.77;1.30;;;10.10;99.90;;;;;;5010139;28;20236;-65
2023/03/20 05:23:11;;;;;;;1.55;1.45;;;10.50;99.90;;;;;;5022703;28;20787;-65
2023/03/20 05:25:36;;;;;;;3.37;2.37;;;10.30;99.90;;;;;;5007349;28;20186;-65
2023/03/20 05:28:02;;;;;;;2.00;1.90;;;9.90;99.90;;;;;;5009631;28;20474;-65
2023/03/20 05:30:28;;;;;;;1.30;1.13;;;10.00;99.90;;;;;;5005693;28;20209;-65
2023/03/20 05:32:53;;;;;;;1.43;1.30;;;10.40;99.90;;;;;;5005436;28;20293;-65
2023/03/20 05:35:19;;;;;;;2.70;2.50;;;10.10;99.90;;;;;;5004239;28;20182;-65
2023/03/20 05:37:45;;;;;;;1.17;1.07;;;10.10;99.90;;;;;;5006647;28;20186;-65
2023/03/20 05:40:14;;;;;;;1.17;1.07;;;10.30;99.90;;;;;;5004323;28;20311;-66
2023/03/20 05:42:40;;;;;;;2.58;2.05;;;10.30;99.90;;;;;;5005924;28;20222;-65
2023/03/20 05:45:06;;;;;;;2.97;1.83;;;10.20;99.90;;;;;;5006281;28;20185;-65
2023/03/20 05:47:32;;;;;;;1.60;1.50;;;10.00;99.90;;;;;;5005986;28;20200;-65
2023/03/20 05:49:57;;;;;;;2.10;1.83;;;10.30;99.90;;;;;;5001705;28;20218;-65
2023/03/20 05:52:23;;;;;;;1.80;1.50;;;10.20;99.90;;;;;;5006302;28;20298;-65
2023/03/20 05:54:49;;;;;;;1.90;1.70;;;10.20;99.90;;;;;;5007561;28;20583;-65
2023/03/20 05:57:16;;;;;;;1.85;1.42;;;10.30;99.90;;;;;;5008520;28;20675;-65
2023/03/20 05:59:42;;;;;;;1.63;1.52;;;10.10;99.90;;;;;;5008573;28;20277;-65
2023/03/20 06:02:08;;;;;;;3.35;1.50;;;10.20;99.90;;;;;;5008293;28;20322;-65
2023/03/20 06:04:36;;;;;;;2.47;1.67;;;10.70;99.90;;;;;;5006058;28;20236;-71
2023/03/20 06:07:02;;;;;;;3.65;2.20;;;10.50;99.90;;;;;;5037560;28;20509;-70
2023/03/20 06:09:28;;;;;;;1.60;1.50;;;10.20;99.90;;;;;;5006719;28;20191;-74
2023/03/20 06:11:53;;;;;;;1.50;1.40;;;10.10;99.90;;;;;;5020529;28;20181;-74
2023/03/20 06:14:19;;;;;;;1.90;1.80;;;10.20;99.90;;;;;;5008323;28;20217;-74
2023/03/20 06:16:45;;;;;;;1.80;1.53;;;10.20;99.90;;;;;;5005895;28;20599;-73
2023/03/20 06:19:11;;;;;;;1.50;1.40;;;10.10;99.90;;;;;;5005619;28;20186;-74
2023/03/20 06:21:37;;;;;;;2.00;1.80;;;10.30;99.90;;;;;;5011008;28;20210;-73
2023/03/20 06:24:02;;;;;;;3.53;1.60;;;10.20;99.90;;;;;;5009622;28;20190;-69
2023/03/20 06:26:28;;;;;;;2.00;1.47;;;10.00;99.90;;;;;;5034616;28;20269;-71
2023/03/20 06:28:54;;;;;;;2.90;1.73;;;10.00;99.90;;;;;;5007218;28;20450;-73
2023/03/20 06:31:20;;;;;;;2.58;1.70;;;10.40;99.90;;;;;;5005993;28;20288;-72
2023/03/20 06:33:46;;;;;;;1.63;1.53;;;10.30;99.90;;;;;;4999155;28;20308;-66
2023/03/20 06:36:11;;;;;;;4.33;1.60;;;10.40;99.90;;;;;;5000338;28;20455;-65
2023/03/20 06:38:37;;;;;;;3.30;1.70;;;10.30;99.90;;;;;;5007491;28;20271;-68
2023/03/20 06:41:03;;;;;;;3.67;3.37;;;10.50;99.90;;;;;;5006694;28;20222;-69
2023/03/20 06:43:29;;;;;;;3.77;1.90;;;10.30;99.90;;;;;;5008412;28;20217;-69
2023/03/20 06:45:54;;;;;;;3.17;2.07;;;10.50;99.90;;;;;;5009524;28;20440;-72
2023/03/20 06:48:21;;;;;;;3.97;3.20;;;10.70;99.90;;;;;;5005463;28;20216;-71
2023/03/20 06:50:51;;;;;;;3.20;2.70;;;10.60;99.90;;;;;;5010113;28;20216;-71
2023/03/20 06:53:18;;;;;;;3.92;1.60;;;11.00;99.90;;;;;;5008952;28;20190;-72
2023/03/20 06:55:48;;;;;;;2.28;1.95;;;10.70;99.90;;;;;;5006683;28;20213;-70
2023/03/20 06:58:14;;;;;;;2.83;1.90;;;10.80;99.90;;;;;;5009983;28;20229;-70
2023/03/20 07:00:41;;;;;;;4.43;3.78;;;11.10;99.90;;;;;;5009420;28;20214;-70
2023/03/20 07:03:07;;;;;;;2.53;2.33;;;11.10;99.90;;;;;;5008445;28;20241;-71
2023/03/20 07:05:33;;;;;;;3.00;2.40;;;11.10;99.90;;;;;;5008093;28;20546;-69
2023/03/20 07:07:59;;;;;;;2.28;2.15;;;11.20;99.90;;;;;;5008477;28;20675;-69
2023/03/20 07:10:26;;;;;;;3.53;1.75;;;11.30;99.90;;;;;;5006748;28;20218;-69
2023/03/20 07:12:51;;;;;;;2.92;2.60;;;11.60;99.90;;;;;;5007964;28;20660;-70
2023/03/20 07:15:18;;;;;;;1.77;1.67;;;11.70;99.90;;;;;;5008466;28;20191;-70
2023/03/20 07:17:43;;;;;;;1.95;1.75;;;12.00;99.90;;;;;;5009378;28;20249;-70
2023/03/20 07:20:09;;;;;;;2.13;1.93;;;12.20;99.90;;;;;;5008655;28;20214;-70
2023/03/20 07:22:36;;;;;;;1.77;1.42;;;12.50;99.90;;;;;;5013135;28;20301;-69
2023/03/20 07:25:02;;;;;;;3.80;1.85;;;12.80;99.90;;;;;;5006184;28;20241;-69
2023/03/20 07:27:28;;;;;;;2.08;1.83;;;12.90;99.90;;;;;;5010731;28;20269;-69
2023/03/20 07:29:54;;;;;;;1.47;1.37;;;13.20;99.90;;;;;;5008653;28;20589;-67
2023/03/20 07:32:20;;;;;;;1.60;1.50;;;13.00;99.90;;;;;;5008797;28;20197;-67
2023/03/20 07:34:46;;;;;;;3.37;1.53;;;13.00;99.90;;;;;;5006818;28;20529;-67
2023/03/20 07:37:12;;;;;;;2.30;1.50;;;12.90;99.90;;;;;;5011741;28;20183;-66
2023/03/20 07:39:37;;;;;;;1.87;1.67;;;12.70;99.90;;;;;;5010408;28;20179;-67
2023/03/20 07:42:03;;;;;;;2.00;1.40;;;12.90;99.90;;;;;;5010342;28;20496;-66
2023/03/20 07:44:29;;;;;;;2.20;1.70;;;12.60;99.90;;;;;;5009802;28;20195;-66
2023/03/20 07:46:55;;;;;;;2.83;1.97;;;12.80;99.90;;;;;;5008719;28;21112;-66
2023/03/20 07:49:20;;;;;;;1.67;1.57;;;12.70;99.90;;;;;;5009088;28;20607;-66
2023/03/20 07:51:47;;;;;;;1.63;1.53;;;13.30;99.90;;;;;;5008137;28;20206;-67
2023/03/20 07:54:14;;;;;;;1.88;1.60;;;12.80;99.90;;;;;;5010748;28;20175;-67
2023/03/20 07:56:39;;;;;;;1.42;1.33;;;13.00;99.90;;;;;;5007613;28;20289;-67
2023/03/20 07:59:05;;;;;;;1.80;1.67;;;13.30;99.90;;;;;;5011684;28;20681;-70
2023/03/20 08:01:31;;;;;;;1.53;1.43;;;13.00;99.90;;;;;;5011781;28;20293;-71
2023/03/20 08:03:56;;;;;;;1.90;1.80;;;13.40;99.90;;;;;;5005997;28;20501;-70
2023/03/20 08:06:22;;;;;;;1.63;1.27;;;12.90;99.90;;;;;;5008118;28;20582;-72
2023/03/20 08:08:50;;;;;;;2.13;1.30;;;13.70;99.90;;;;;;5008770;28;20175;-71
2023/03/20 08:11:17;;;;;;;2.13;1.52;;;14.00;99.90;;;;;;5004914;28;20273;-70
2023/03/20 08:13:42;;;;;;;2.10;1.75;;;14.30;99.90;;;;;;5007739;28;20191;-71
2023/03/20 08:16:08;;;;;;;5.53;2.40;;;14.10;99.90;;;;;;5005721;28;20524;-71
2023/03/20 08:18:34;;;;;;;2.00;1.80;;;14.10;99.90;;;;;;5009705;28;20195;-71
2023/03/20 08:21:00;;;;;;;1.95;1.80;;;13.90;99.90;;;;;;5008268;28;20465;-70
2023/03/20 08:23:26;;;;;;;3.17;1.40;;;14.00;99.90;;;;;;5008697;28;20251;-70
2023/03/20 08:25:53;;;;;;;1.73;1.50;;;14.20;99.90;;;;;;5009348;28;20529;-71
2023/03/20 08:28:19;;;;;;;1.60;1.48;;;13.70;99.90;;;;;;5009400;28;20198;-70
2023/03/20 08:30:46;;;;;;;1.77;1.65;;;13.80;99.90;;;;;;5008655;28;20230;-68
2023/03/20 08:33:14;;;;;;;1.55;1.42;;;13.80;99.90;;;;;;5005564;28;22092;-68
2023/03/20 08:35:40;;;;;;;1.50;1.40;;;13.60;99.90;;;;;;5004920;28;20289;-68
2023/03/20 08:38:05;;;;;;;2.43;1.50;;;13.80;99.90;;;;;;5004405;28;21982;-69
2023/03/20 08:40:31;;;;;;;3.33;1.90;;;13.80;99.90;;;;;;5006786;28;21311;-69
2023/03/20 08:42:57;;;;;;;2.73;2.47;;;13.60;99.90;;;;;;5008116;28;20493;-67
2023/03/20 08:45:25;;;;;;;2.83;1.77;;;13.50;99.90;;;;;;5004147;28;20477;-68
2023/03/20 08:47:51;;;;;;;4.20;3.80;;;13.70;99.90;;;;;;5008184;28;20545;-67
2023/03/20 08:50:17;;;;;;;4.00;1.55;;;13.80;99.90;;;;;;5007596;28;20728;-68
2023/03/20 08:52:43;;;;;;;2.75;1.13;;;13.80;99.90;;;;;;5006897;28;20195;-68
2023/03/20 08:55:10;;;;;;;1.50;1.20;;;13.80;99.90;;;;;;5005022;28;20612;-68
2023/03/20 08:57:37;;;;;;;1.65;1.55;;;13.60;99.90;;;;;;5005592;28;20433;-68
2023/03/20 09:00:05;;;;;;;1.50;1.40;;;13.60;99.90;;;;;;5001317;28;20264;-70
2023/03/20 09:02:32;;;;;;;2.25;1.65;;;14.30;99.90;;;;;;5018569;28;20211;-69
2023/03/20 09:04:57;;;;;;;1.40;1.30;;;14.70;99.80;;;;;;5007418;28;20613;-73
2023/03/20 09:07:23;;;;;;;3.10;1.20;;;14.60;98.90;;;;;;5022854;28;20186;-71
2023/03/20 09:09:48;;;;;;;3.13;2.43;;;15.00;98.40;;;;;;5004020;28;20589;-69
2023/03/20 09:12:14;;;;;;;2.30;1.73;;;15.00;98.00;;;;;;5006232;28;20191;-68
2023/03/20 09:14:40;;;;;;;2.40;1.60;;;15.30;97.40;;;;;;5004443;28;20195;-70
2023/03/20 09:17:06;;;;;;;1.52;1.42;;;15.70;96.30;;;;;;5007121;28;20183;-69
2023/03/20 09:19:32;;;;;;;1.53;1.43;;;16.00;95.90;;;;;;5003398;28;20194;-67
2023/03/20 09:21:58;;;;;;;1.42;1.33;;;16.10;94.80;;;;;;5007115;28;20195;-70
2023/03/20 09:24:24;;;;;;;1.85;1.75;;;16.50;94.70;;;;;;5007019;28;20179;-70
2023/03/20 09:26:51;;;;;;;2.67;1.30;;;16.50;94.00;;;;;;5003931;28;20191;-70
2023/03/20 09:29:16;;;;;;;1.40;1.30;;;16.50;93.30;;;;;;5007532;28;20658;-67
2023/03/20 09:31:42;;;;;;;1.57;1.33;;;16.20;93.60;;;;;;5005267;28;20207;-76
2023/03/20 09:34:08;;;;;;;3.00;1.50;;;15.90;94.30;;;;;;5003844;28;20193;-68
2023/03/20 09:36:33;;;;;;;2.53;1.50;;;16.40;94.40;;;;;;5006557;28;20191;-68
2023/03/20 09:38:59;;;;;;;3.33;1.87;;;16.60;93.80;;;;;;5007261;28;20241;-68
2023/03/20 09:41:26;;;;;;;1.60;1.50;;;16.50;94.40;;;;;;5005234;28;20771;-68
2023/03/20 09:44:04;;;;;;;3.35;1.73;;;16.50;93.90;;;;;;5006811;28;20549;-68
2023/03/20 09:46:48;;;;;;;2.17;1.73;;;16.60;93.70;;;;;;5006181;28;20186;-68
2023/03/20 09:49:28;;;;;;;1.70;1.52;;;16.30;93.40;;;;;;5005137;28;20205;-70
2023/03/20 09:51:56;;;;;;;2.78;1.80;;;16.20;93.40;;;;;;5003341;28;20642;-67
2023/03/20 09:54:35;;;;;;;1.80;1.70;;;16.30;93.50;;;;;;5005098;28;20525;-66
2023/03/20 09:57:02;;;;;;;2.05;1.85;;;16.50;93.50;;;;;;5002777;28;20266;-66
2023/03/20 09:59:31;;;;;;;2.10;1.90;;;16.10;93.30;;;;;;5004613;28;20186;-67
2023/03/20 10:02:06;;;;;;;1.85;1.75;;;16.10;93.50;;;;;;5005123;28;20318;-68
2023/03/20 10:04:33;;;;;;;2.10;1.98;;;16.00;93.60;;;;;;5009193;28;20193;-69
2023/03/20 10:07:02;;;;;;;3.45;1.95;;;16.30;94.00;;;;;;5007284;28;20237;-70
2023/03/20 10:09:32;;;;;;;2.53;1.77;;;16.50;93.60;;;;;;5005984;28;20198;-70
2023/03/20 10:12:27;;;;;;;1.90;1.80;;;16.40;92.90;;;;;;5004741;28;20656;-69
2023/03/20 10:15:20;;;;;;;2.13;1.88;;;16.30;93.10;;;;;;5007957;28;20588;-70
2023/03/20 10:17:58;;;;;;;2.13;1.92;;;15.80;93.50;;;;;;5006589;28;20528;-73
2023/03/20 10:20:40;;;;;;;4.20;1.85;;;15.90;93.30;;;;;;5005908;28;20703;-68
2023/03/20 10:23:17;;;;;;;2.10;1.90;;;16.00;93.20;;;;;;5008552;28;20301;-69
2023/03/20 10:25:51;;;;;;;3.92;2.20;;;16.10;93.20;;;;;;5000147;28;20183;-69
2023/03/20 10:28:23;;;;;;;1.90;1.80;;;16.10;93.60;;;;;;5008542;28;20278;-66
2023/03/20 10:31:18;;;;;;;3.08;2.60;;;16.20;93.50;;;;;;5005557;28;20195;-67
2023/03/20 10:34:01;;;;;;;3.53;2.50;;;15.90;93.20;;;;;;5005132;28;20190;-68
2023/03/20 10:36:40;;;;;;;1.60;1.50;;;15.70;93.20;;;;;;5004681;28;20571;-68
2023/03/20 10:39:18;;;;;;;1.95;1.75;;;15.50;92.80;;;;;;5006554;28;20261;-68
2023/03/20 10:41:52;;;;;;;2.55;1.88;;;15.70;93.30;;;;;;5004937;28;20221;-70
2023/03/20 10:44:45;;;;;;;3.70;2.03;;;15.30;93.90;;;;;;5003242;28;20185;-69
2023/03/20 10:47:15;;;;;;;2.92;2.10;;;15.20;93.70;;;;;;5005748;28;20190;-70
2023/03/20 10:49:48;;;;;;;3.15;1.60;;;14.50;93.80;;;;;;5002844;28;20695;-69
2023/03/20 10:52:21;;;;;;;2.25;1.75;;;14.90;94.70;;;;;;5006495;28;20664;-70
2023/03/20 10:54:54;;;;;;;5.65;5.10;;;14.70;94.80;;;;;;5004802;28;20187;-70
2023/03/20 10:57:26;;;;;;;2.75;2.47;;;14.60;95.60;;;;;;5009561;28;20671;-69
2023/03/20 10:59:55;;;;;;;2.08;1.90;;;14.60;96.60;;;;;;5008133;28;20619;-68
2023/03/20 11:02:24;;;;;;;2.30;2.10;;;14.50;97.00;;;;;;5007128;28;20207;-70
2023/03/20 11:04:50;;;;;;;2.95;2.50;;;14.30;97.40;;;;;;5006641;28;20189;-70
2023/03/20 11:07:24;;;;;;;2.87;1.77;;;14.80;97.90;;;;;;5010092;28;20175;-69
2023/03/20 11:10:12;;;;;;;13.40;3.40;;;14.40;97.50;;;;;;5008091;28;20206;-69
2023/03/20 11:12:46;;;;;;;8.82;3.83;;;14.50;97.40;;;;;;5006366;28;20185;-68
2023/03/20 11:15:25;;;;;;;4.15;2.30;;;14.60;97.80;;;;;;4994244;28;20734;-65
2023/03/20 11:17:57;;;;;;;4.30;2.00;;;14.60;98.10;;;;;;5007401;28;20556;-67
2023/03/20 11:20:25;;;;;;;3.08;2.25;;;14.80;97.40;;;;;;5009311;28;20199;-67
2023/03/20 11:22:57;;;;;;;3.75;2.30;;;14.90;97.20;;;;;;5006916;28;20202;-68
2023/03/20 11:25:37;;;;;;;6.05;3.15;;;14.60;97.30;;;;;;5007269;28;20183;-68
2023/03/20 11:28:30;;;;;;;5.47;4.35;;;15.20;97.30;;;;;;5007118;28;20240;-66
2023/03/20 11:31:17;;;;;;;4.68;4.20;;;15.20;97.40;;;;;;5009227;28;20226;-68
2023/03/20 11:33:46;;;;;;;5.40;4.20;;;15.20;97.60;;;;;;5022592;28;20713;-68
2023/03/20 11:36:24;;;;;;;4.40;4.00;;;15.00;97.50;;;;;;5009553;28;20559;-67
2023/03/20 11:38:51;;;;;;;5.22;4.32;;;15.10;97.50;;;;;;5009947;28;20693;-66
2023/03/20 11:41:26;;;;;;;5.30;4.80;;;15.10;97.80;;;;;;5009846;28;20210;-68
2023/03/20 11:43:52;;;;;;;5.35;3.42;;;15.00;97.60;;;;;;5009010;28;20213;-68
2023/03/20 11:46:21;;;;;;;4.13;3.72;;;15.00;97.20;;;;;;5005876;28;20218;-69
2023/03/20 11:49:01;;;;;;;4.47;4.05;;;14.80;97.20;;;;;;5006782;28;20191;-69
2023/03/20 11:51:27;;;;;;;4.43;4.00;;;14.80;97.40;;;;;;5022234;28;20230;-68
2023/03/20 11:54:13;;;;;;;6.87;5.50;;;14.70;97.00;;;;;;5012203;28;20214;-67
2023/03/20 11:56:54;;;;;;;6.90;4.32;;;14.80;97.40;;;;;;5004903;28;20504;-68
2023/03/20 11:59:21;;;;;;;5.25;4.10;;;15.40;98.00;;;;;;5009871;28;20194;-69
2023/03/20 12:01:52;;;;;;;4.82;3.92;;;15.20;97.70;;;;;;5011881;28;20298;-69
2023/03/20 12:04:41;;;;;;;6.15;4.45;;;15.10;96.70;;;;;;5008868;28;20648;-67
2023/03/20 12:07:18;;;;;;;5.45;4.07;;;15.60;96.40;;;;;;5007246;28;20590;-67
2023/03/20 12:09:50;;;;;;;4.82;3.90;;;15.80;95.70;;;;;;5008657;28;20273;-67
2023/03/20 12:12:21;;;;;;;4.38;4.00;;;16.00;95.60;;;;;;5015890;28;20195;-68
2023/03/20 12:15:06;;;;;;;4.38;3.95;;;16.50;94.70;;;;;;5007076;28;20194;-71
2023/03/20 12:17:56;;;;;;;8.93;5.00;;;17.10;93.50;;;;;;5005078;28;20195;-69
2023/03/20 12:20:21;;;;;;;6.13;4.13;;;16.60;93.40;;;;;;5006984;28;20306;-69
2023/03/20 12:23:01;;;;;;;6.87;4.03;;;16.50;93.20;;;;;;5007308;28;20725;-64
2023/03/20 12:25:36;;;;;;;4.70;4.20;;;16.70;93.20;;;;;;5006296;28;20185;-66
2023/03/20 12:28:09;;;;;;;5.00;4.60;;;16.60;93.00;;;;;;5007227;28;20277;-66
2023/03/20 12:30:50;;;;;;;5.18;3.90;;;16.90;92.90;;;;;;5006250;28;20707;-66
2023/03/20 12:33:28;;;;;;;7.10;5.97;;;17.00;92.50;;;;;;5005454;28;20190;-69
2023/03/20 12:35:57;;;;;;;4.85;4.35;;;16.90;92.40;;;;;;5004478;28;20257;-69
2023/03/20 12:38:30;;;;;;;6.30;5.10;;;16.50;92.70;;;;;;5004465;28;20183;-64
2023/03/20 12:41:07;;;;;;;4.68;3.63;;;16.60;93.30;;;;;;5004387;28;21539;-67
2023/03/20 12:43:58;;;;;;;4.40;3.58;;;16.30;92.90;;;;;;5007831;28;20236;-68
2023/03/20 12:46:28;;;;;;;4.13;3.80;;;16.40;93.40;;;;;;5005582;28;20191;-69
2023/03/20 12:49:06;;;;;;;3.95;3.55;;;16.50;93.00;;;;;;5005041;28;20191;-68
2023/03/20 12:52:16;;;;;;;4.28;3.88;;;16.50;92.90;;;;;;5007461;28;20485;-66
2023/03/20 12:55:12;;;;;;;4.15;3.83;;;16.20;92.70;;;;;;4998768;28;20625;-66
2023/03/20 12:57:43;;;;;;;4.32;3.92;;;15.80;93.40;;;;;;5005150;28;20209;-65
2023/03/20 13:00:34;;;;;;;9.98;5.90;;;15.60;93.80;;;;;;5005132;28;20207;-64
2023/03/20 13:03:16;;;;;;;7.85;4.55;;;15.90;93.80;;;;;;5039052;28;20209;-64
2023/03/20 13:05:55;;;;;;;4.63;4.18;;;16.20;93.70;;;;;;5006619;28;20183;-64
2023/03/20 13:08:36;;;;;;;3.72;3.42;;;15.90;93.60;;;;;;5006507;28;21027;-64